createdAt,value
2022-08-17T00:01:32.740Z,21.88
2022-08-17T00:04:19.221Z,32.63
2022-08-17T00:06:46.176Z,23.85
2022-08-17T00:09:18.309Z,25.45
2022-08-17T00:12:34.923Z,27.33
2022-08-17T00:14:40.008Z,25.10
2022-08-17T00:17:06.697Z,24.60
2022-08-17T00:19:33.978Z,24.08
2022-08-17T00:22:31.451Z,25.65
2022-08-17T00:24:49.688Z,25.88
2022-08-17T00:27:16.261Z,26.48
2022-08-17T00:29:45.385Z,23.33
2022-08-17T00:33:12.019Z,25.45
2022-08-17T00:34:59.850Z,26.23
2022-08-17T00:37:26.410Z,49.70
2022-08-17T00:39:52.992Z,24.40
2022-08-17T00:42:19.583Z,27.27
2022-08-17T00:44:46.617Z,31.55
2022-08-17T00:47:13.720Z,25.23
2022-08-17T00:49:40.225Z,24.95
2022-08-17T00:52:12.651Z,25.75
2022-08-17T00:54:42.197Z,23.52
2022-08-17T00:57:13.193Z,25.90
2022-08-17T00:59:47.128Z,25.35
2022-08-17T01:02:29.593Z,26.65
2022-08-17T01:05:00.899Z,28.77
2022-08-17T01:07:27.752Z,31.20
2022-08-17T01:09:54.614Z,36.97
2022-08-17T01:12:21.411Z,27.85
2022-08-17T01:14:48.217Z,26.45
2022-08-17T01:17:14.721Z,29.05
2022-08-17T01:19:42.142Z,28.70
2022-08-17T01:22:11.552Z,29.23
2022-08-17T01:24:42.320Z,31.17
2022-08-17T01:27:10.798Z,29.35
2022-08-17T01:29:39.596Z,28.60
2022-08-17T01:32:06.870Z,26.55
2022-08-17T01:34:42.840Z,24.90
2022-08-17T01:37:12.162Z,28.10
2022-08-17T01:39:54.722Z,31.02
2022-08-17T01:42:31.314Z,29.20
2022-08-17T01:44:59.671Z,28.75
2022-08-17T01:47:26.183Z,27.17
2022-08-17T01:49:52.847Z,39.65
2022-08-17T01:52:21.966Z,28.55
2022-08-17T01:54:49.307Z,26.65
2022-08-17T01:57:15.862Z,25.63
2022-08-17T01:59:42.841Z,29.08
2022-08-17T02:02:09.369Z,31.02
2022-08-17T02:04:35.907Z,29.30
2022-08-17T02:07:02.419Z,32.85
2022-08-17T02:09:30.292Z,37.03
2022-08-17T02:11:59.875Z,38.70
2022-08-17T02:14:46.395Z,38.58
2022-08-17T02:17:12.904Z,37.22
2022-08-17T02:19:40.189Z,39.55
2022-08-17T02:22:10.232Z,36.10
2022-08-17T02:24:59.569Z,37.97
2022-08-17T02:27:24.190Z,34.45
2022-08-17T02:29:50.683Z,38.55
2022-08-17T02:32:28.227Z,35.45
2022-08-17T02:34:56.673Z,25.38
2022-08-17T02:37:23.240Z,22.02
2022-08-17T02:39:49.778Z,27.02
2022-08-17T02:42:16.341Z,22.08
2022-08-17T02:44:42.978Z,22.95
2022-08-17T02:47:11.815Z,31.45
2022-08-17T02:49:38.478Z,34.03
2022-08-17T02:52:06.634Z,29.55
2022-08-17T02:54:39.916Z,26.60
2022-08-17T02:57:09.229Z,25.48
2022-08-17T02:59:35.753Z,26.65
2022-08-17T03:02:07.638Z,42.20
2022-08-17T03:04:35.293Z,50.92
2022-08-17T03:07:02.806Z,27.30
2022-08-17T03:09:29.312Z,63.65
2022-08-17T03:11:56.063Z,24.33
2022-08-17T03:14:26.144Z,27.05
2022-08-17T03:16:53.666Z,26.55
2022-08-17T03:19:20.229Z,25.90
2022-08-17T03:21:46.768Z,26.15
2022-08-17T03:24:21.958Z,33.92
2022-08-17T03:26:55.451Z,38.90
2022-08-17T03:29:22.095Z,40.35
2022-08-17T03:31:49.272Z,38.65
2022-08-17T03:34:16.829Z,33.58
2022-08-17T03:36:43.584Z,27.48
2022-08-17T03:39:10.274Z,27.45
2022-08-17T03:41:37.600Z,33.47
2022-08-17T03:44:04.192Z,31.50
2022-08-17T03:46:49.425Z,32.08
2022-08-17T03:49:34.578Z,32.15
2022-08-17T03:52:19.849Z,31.05
2022-08-17T03:55:05.155Z,32.45
2022-08-17T03:57:32.718Z,29.92
2022-08-17T03:59:59.771Z,31.05
2022-08-17T04:02:31.414Z,29.70
2022-08-17T04:04:58.762Z,30.80
2022-08-17T04:07:27.508Z,32.90
2022-08-17T04:09:54.052Z,32.35
2022-08-17T04:12:22.353Z,31.67
2022-08-17T04:14:52.945Z,32.75
2022-08-17T04:17:26.110Z,32.92
2022-08-17T04:19:54.495Z,30.65
2022-08-17T04:22:33.070Z,33.25
2022-08-17T04:25:07.478Z,28.67
2022-08-17T04:27:34.358Z,34.42
2022-08-17T04:30:01.127Z,29.63
2022-08-17T04:33:04.057Z,32.58
2022-08-17T04:35:18.795Z,32.00
2022-08-17T04:37:45.516Z,31.33
2022-08-17T04:40:30.791Z,32.28
2022-08-17T04:43:05.462Z,31.63
2022-08-17T04:45:32.641Z,34.58
2022-08-17T04:48:00.521Z,30.35
2022-08-17T04:50:27.463Z,32.30
2022-08-17T04:52:54.186Z,32.47
2022-08-17T04:55:20.832Z,31.08
2022-08-17T04:57:47.407Z,31.77
2022-08-17T05:00:14.158Z,29.90
2022-08-17T05:02:51.004Z,32.28
2022-08-17T05:05:28.479Z,31.85
2022-08-17T05:07:56.829Z,30.90
2022-08-17T05:10:25.188Z,33.53
2022-08-17T05:13:09.339Z,30.98
2022-08-17T05:15:37.940Z,35.15
2022-08-17T05:18:11.550Z,51.03
2022-08-17T05:20:39.597Z,33.05
2022-08-17T05:23:09.847Z,33.42
2022-08-17T05:25:47.910Z,31.33
2022-08-17T05:28:16.000Z,30.67
2022-08-17T05:30:43.615Z,31.60
2022-08-17T05:33:13.787Z,34.45
2022-08-17T05:35:43.959Z,32.53
2022-08-17T05:38:10.682Z,31.60
2022-08-17T05:40:38.264Z,31.75
2022-08-17T05:43:12.898Z,30.65
2022-08-17T05:45:55.354Z,28.23
2022-08-17T05:48:35.515Z,29.58
2022-08-17T05:51:20.156Z,28.08
2022-08-17T05:54:17.774Z,29.67
2022-08-17T05:57:07.142Z,27.17
2022-08-17T05:59:38.289Z,26.23
2022-08-17T06:02:47.084Z,52.45
2022-08-17T06:05:42.909Z,31.95
2022-08-17T06:08:18.712Z,29.67
2022-08-17T06:11:28.553Z,43.20
2022-08-17T06:14:31.455Z,31.98
2022-08-17T06:17:03.535Z,30.90
2022-08-17T06:19:40.823Z,30.00
2022-08-17T06:22:08.758Z,32.35
2022-08-17T06:24:42.925Z,33.22
2022-08-17T06:27:35.663Z,34.50
2022-08-17T06:30:13.006Z,33.40
2022-08-17T06:32:43.345Z,33.83
2022-08-17T06:35:13.067Z,29.70
2022-08-17T06:37:59.824Z,28.60
2022-08-17T06:40:55.584Z,31.63
2022-08-17T06:43:40.168Z,31.20
2022-08-17T06:46:25.361Z,30.02
2022-08-17T06:49:14.726Z,26.00
2022-08-17T06:51:46.416Z,28.95
2022-08-17T06:54:22.215Z,22.95
2022-08-17T06:57:16.314Z,25.80
2022-08-17T07:02:52.523Z,24.00
2022-08-17T07:05:24.497Z,21.13
2022-08-17T07:08:05.117Z,21.15
2022-08-17T07:10:38.456Z,22.70
2022-08-17T07:13:26.029Z,21.00
2022-08-17T07:16:10.117Z,20.75
2022-08-17T07:18:37.364Z,19.60
2022-08-17T07:21:40.777Z,21.20
2022-08-17T07:24:45.178Z,20.10
2022-08-17T07:29:48.795Z,22.65
2022-08-17T07:32:19.444Z,23.60
2022-08-17T07:35:22.085Z,20.98
2022-08-17T07:38:25.147Z,20.30
2022-08-17T07:41:06.012Z,22.55
2022-08-17T07:43:36.474Z,21.50
2022-08-17T07:46:50.709Z,20.38
2022-08-17T07:49:31.780Z,22.17
2022-08-17T07:52:47.426Z,22.50
2022-08-17T07:54:57.084Z,24.20
2022-08-17T07:57:31.996Z,20.80
2022-08-17T08:00:01.638Z,17.40
2022-08-17T08:02:43.164Z,19.15
2022-08-17T08:05:16.260Z,19.75
2022-08-17T08:08:16.058Z,19.23
2022-08-17T08:10:45.345Z,17.27
2022-08-17T08:13:22.601Z,15.57
2022-08-17T08:15:54.880Z,17.65
2022-08-17T08:18:53.313Z,16.70
2022-08-17T08:21:42.813Z,16.95
2022-08-17T08:24:12.314Z,15.88
2022-08-17T08:26:46.367Z,15.20
2022-08-17T08:29:32.855Z,17.55
2022-08-17T08:32:07.932Z,16.73
2022-08-17T08:35:00.548Z,16.55
2022-08-17T08:37:42.442Z,15.15
2022-08-17T08:40:27.898Z,17.63
2022-08-17T08:43:26.710Z,17.90
2022-08-17T08:46:24.352Z,18.02
2022-08-17T08:49:10.102Z,16.85
2022-08-17T08:51:59.080Z,14.63
2022-08-17T08:54:48.937Z,17.10
2022-08-17T08:57:26.748Z,14.93
2022-08-17T09:00:06.753Z,17.10
2022-08-17T09:02:38.853Z,13.93
2022-08-17T09:05:15.060Z,13.38
2022-08-17T09:08:06.162Z,14.38
2022-08-17T09:10:55.839Z,12.88
2022-08-17T09:13:31.877Z,14.73
2022-08-17T09:16:23.122Z,10.02
2022-08-17T09:18:59.923Z,12.57
2022-08-17T09:21:52.547Z,13.88
2022-08-17T09:24:26.898Z,11.95
2022-08-17T09:26:59.431Z,11.10
2022-08-17T09:29:27.103Z,11.07
2022-08-17T09:31:59.598Z,13.82
2022-08-17T09:34:33.516Z,10.10
2022-08-17T09:37:21.101Z,9.15
2022-08-17T09:40:23.060Z,10.38
2022-08-17T09:42:54.611Z,10.45
2022-08-17T09:45:26.893Z,8.65
2022-08-17T09:51:05.173Z,10.95
2022-08-17T09:53:33.511Z,10.88
2022-08-17T09:56:09.582Z,10.60
2022-08-17T09:59:07.094Z,8.95
2022-08-17T10:01:41.158Z,8.32
2022-08-17T10:04:20.389Z,8.43
2022-08-17T10:06:52.668Z,8.63
2022-08-17T10:09:29.975Z,8.45
2022-08-17T10:12:20.243Z,9.48
2022-08-17T10:15:18.809Z,7.20
2022-08-17T10:18:03.948Z,7.75
2022-08-17T10:20:42.849Z,8.10
2022-08-17T10:23:43.817Z,7.68
2022-08-17T10:26:21.819Z,8.30
2022-08-17T10:28:53.692Z,7.05
2022-08-17T10:31:34.728Z,7.63
2022-08-17T10:34:08.101Z,6.95
2022-08-17T10:36:59.297Z,7.60
2022-08-17T10:39:32.689Z,6.28
2022-08-17T10:42:03.708Z,7.32
2022-08-17T10:44:49.149Z,7.63
2022-08-17T10:47:18.861Z,6.25
2022-08-17T10:49:53.621Z,7.07
2022-08-17T10:52:20.155Z,6.40
2022-08-17T10:54:48.365Z,7.30
2022-08-17T10:57:27.914Z,6.70
2022-08-17T10:59:56.573Z,6.18
2022-08-17T11:02:31.427Z,5.65
2022-08-17T11:05:07.756Z,5.65
2022-08-17T11:07:47.341Z,6.63
2022-08-17T11:10:28.916Z,6.63
2022-08-17T11:13:07.384Z,5.60
2022-08-17T11:15:36.720Z,5.60
2022-08-17T11:18:22.385Z,5.57
2022-08-17T11:21:21.409Z,4.88
2022-08-17T11:24:00.386Z,4.50
2022-08-17T11:26:31.911Z,5.25
2022-08-17T11:29:05.319Z,6.07
2022-08-17T11:31:38.487Z,4.60
2022-08-17T11:37:17.451Z,4.57
2022-08-17T11:40:14.750Z,4.90
2022-08-17T11:43:03.390Z,4.53
2022-08-17T11:46:22.346Z,4.28
2022-08-17T11:49:31.683Z,4.75
2022-08-17T11:52:01.274Z,5.88
2022-08-17T11:54:33.676Z,4.57
2022-08-17T11:57:21.657Z,4.55
2022-08-17T11:59:48.127Z,6.10
2022-08-17T12:02:32.963Z,5.05
2022-08-17T12:05:14.470Z,4.65
2022-08-17T12:07:57.244Z,5.38
2022-08-17T12:10:31.887Z,5.18
2022-08-17T12:12:59.843Z,5.22
2022-08-17T12:15:32.577Z,5.07
2022-08-17T12:17:59.238Z,5.93
2022-08-17T12:20:39.483Z,5.57
2022-08-17T12:23:20.217Z,7.38
2022-08-17T12:25:57.621Z,5.70
2022-08-17T12:28:28.115Z,6.50
2022-08-17T12:30:58.643Z,5.90
2022-08-17T12:33:28.492Z,7.15
2022-08-17T12:36:04.589Z,5.88
2022-08-17T12:38:36.188Z,6.72
2022-08-17T12:41:24.948Z,5.88
2022-08-17T12:44:06.502Z,6.28
2022-08-17T12:46:44.794Z,6.25
2022-08-17T12:49:22.912Z,6.47
2022-08-17T12:51:50.628Z,7.72
2022-08-17T12:54:31.447Z,7.47
2022-08-17T12:57:02.736Z,5.50
2022-08-17T12:59:32.983Z,6.18
2022-08-17T13:02:00.154Z,6.10
2022-08-17T13:04:29.625Z,6.82
2022-08-17T13:06:59.689Z,7.80
2022-08-17T13:09:35.459Z,5.25
2022-08-17T13:12:06.852Z,5.45
2022-08-17T13:14:34.197Z,5.60
2022-08-17T13:17:02.260Z,6.00
2022-08-17T13:19:40.393Z,5.47
2022-08-17T13:22:11.275Z,5.60
2022-08-17T13:24:38.287Z,5.65
2022-08-17T13:27:08.408Z,5.53
2022-08-17T13:29:44.163Z,5.45
2022-08-17T13:32:14.281Z,5.32
2022-08-17T13:35:11.785Z,5.47
2022-08-17T13:37:40.986Z,6.53
2022-08-17T13:40:09.201Z,7.00
2022-08-17T13:42:53.987Z,6.60
2022-08-17T13:45:39.600Z,5.25
2022-08-17T13:48:17.297Z,5.65
2022-08-17T13:50:59.473Z,5.55
2022-08-17T13:53:31.186Z,5.68
2022-08-17T13:55:59.954Z,5.20
2022-08-17T13:58:32.485Z,5.38
2022-08-17T14:00:59.025Z,5.38
2022-08-17T14:03:25.607Z,5.90
2022-08-17T14:05:52.851Z,5.57
2022-08-17T14:08:20.099Z,5.13
2022-08-17T14:10:57.737Z,4.88
2022-08-17T14:13:24.277Z,5.25
2022-08-17T14:15:56.319Z,4.88
2022-08-17T14:18:55.536Z,4.78
2022-08-17T14:21:10.141Z,8.70
2022-08-17T14:23:37.120Z,5.40
2022-08-17T14:26:04.130Z,5.18
2022-08-17T14:28:30.901Z,5.35
2022-08-17T14:31:01.947Z,5.15
2022-08-17T14:33:29.357Z,6.13
2022-08-17T14:35:57.440Z,5.13
2022-08-17T14:38:24.228Z,5.18
2022-08-17T14:40:50.789Z,5.05
2022-08-17T14:43:18.655Z,4.32
2022-08-17T14:45:45.158Z,4.53
2022-08-17T14:48:11.833Z,4.90
2022-08-17T14:50:41.399Z,4.55
2022-08-17T14:53:10.296Z,4.60
2022-08-17T14:55:39.687Z,6.47
2022-08-17T14:58:06.830Z,6.00
2022-08-17T15:00:33.536Z,4.38
2022-08-17T15:03:00.702Z,7.07
2022-08-17T15:05:33.512Z,5.18
2022-08-17T15:08:01.222Z,6.10
2022-08-17T15:10:28.700Z,6.90
2022-08-17T15:12:55.409Z,6.38
2022-08-17T15:15:22.435Z,5.63
2022-08-17T15:17:49.298Z,5.07
2022-08-17T15:20:22.778Z,4.57
2022-08-17T15:22:49.785Z,5.20
2022-08-17T15:25:17.996Z,6.03
2022-08-17T15:27:44.709Z,4.80
2022-08-17T15:30:11.960Z,6.75
2022-08-17T15:32:40.586Z,7.32
2022-08-17T15:35:09.129Z,5.38
2022-08-17T15:37:36.239Z,5.93
2022-08-17T15:40:03.786Z,5.38
2022-08-17T15:42:30.336Z,4.70
2022-08-17T15:44:57.254Z,7.18
2022-08-17T15:47:24.017Z,5.53
2022-08-17T15:49:50.966Z,4.80
2022-08-17T15:52:26.206Z,4.93
2022-08-17T15:55:00.780Z,4.47
2022-08-17T15:57:27.702Z,4.35
2022-08-17T15:59:58.962Z,5.32
2022-08-17T16:03:14.822Z,8.25
2022-08-17T16:05:22.065Z,4.55
2022-08-17T16:07:51.630Z,5.30
2022-08-17T16:10:19.172Z,5.85
2022-08-17T16:12:47.712Z,5.63
2022-08-17T16:15:14.607Z,5.65
2022-08-17T16:17:43.922Z,5.38
2022-08-17T16:20:19.918Z,4.40
2022-08-17T16:22:48.411Z,5.65
2022-08-17T16:25:21.467Z,4.20
2022-08-17T16:27:54.364Z,6.50
2022-08-17T16:30:23.793Z,4.47
2022-08-17T16:32:51.749Z,8.73
2022-08-17T16:35:21.073Z,5.70
2022-08-17T16:37:47.980Z,3.50
2022-08-17T16:40:16.582Z,3.72
2022-08-17T16:42:43.288Z,3.88
2022-08-17T16:45:18.988Z,4.00
2022-08-17T16:47:45.933Z,5.57
2022-08-17T16:50:15.363Z,4.82
2022-08-17T16:52:42.212Z,6.47
2022-08-17T16:55:13.119Z,4.50
2022-08-17T16:57:48.527Z,4.97
2022-08-17T17:00:18.190Z,6.50
2022-08-17T17:02:47.204Z,3.45
2022-08-17T17:05:41.283Z,4.13
2022-08-17T17:08:12.691Z,5.22
2022-08-17T17:10:46.063Z,5.97
2022-08-17T17:16:12.643Z,5.05
2022-08-17T17:19:05.102Z,4.32
2022-08-17T17:21:46.988Z,6.95
2022-08-17T17:24:50.210Z,3.90
2022-08-17T17:27:19.695Z,3.60
2022-08-17T17:29:59.224Z,6.55
2022-08-17T17:32:47.381Z,5.57
2022-08-17T17:35:26.406Z,3.70
2022-08-17T17:37:54.420Z,5.38
2022-08-17T17:40:32.176Z,4.25
2022-08-17T17:43:14.200Z,3.70
2022-08-17T17:46:28.348Z,3.80
2022-08-17T17:48:58.412Z,3.80
2022-08-17T17:52:06.887Z,3.88
2022-08-17T17:54:58.694Z,4.82
2022-08-17T17:57:40.564Z,5.43
2022-08-17T18:00:13.202Z,5.05
2022-08-17T18:03:09.804Z,4.93
2022-08-17T18:05:44.433Z,4.38
2022-08-17T18:08:32.427Z,5.80
2022-08-17T18:11:24.688Z,4.72
2022-08-17T18:14:29.494Z,3.88
2022-08-17T18:16:59.076Z,6.97
2022-08-17T18:19:28.091Z,3.75
2022-08-17T18:22:06.927Z,5.65
2022-08-17T18:24:37.881Z,4.68
2022-08-17T18:27:47.485Z,3.40
2022-08-17T18:30:13.870Z,6.55
2022-08-17T18:32:43.504Z,5.88
2022-08-17T18:35:10.002Z,3.42
2022-08-17T18:37:47.173Z,3.42
2022-08-17T18:40:26.831Z,4.35
2022-08-17T18:42:58.573Z,3.55
2022-08-17T18:45:57.978Z,5.35
2022-08-17T18:48:29.808Z,4.93
2022-08-17T18:51:03.058Z,4.43
2022-08-17T18:53:39.446Z,3.28
2022-08-17T18:56:16.361Z,3.92
2022-08-17T18:58:43.307Z,3.55
2022-08-17T19:01:20.438Z,3.60
2022-08-17T19:03:47.100Z,3.70
2022-08-17T19:06:31.448Z,4.97
2022-08-17T19:08:59.422Z,4.03
2022-08-17T19:11:35.692Z,4.18
2022-08-17T19:14:10.271Z,3.53
2022-08-17T19:16:42.541Z,4.03
2022-08-17T19:19:16.229Z,3.90
2022-08-17T19:21:46.269Z,5.03
2022-08-17T19:24:24.277Z,4.57
2022-08-17T19:26:56.400Z,6.10
2022-08-17T19:29:38.607Z,5.63
2022-08-17T19:32:07.930Z,4.00
2022-08-17T19:34:36.175Z,5.70
2022-08-17T19:37:09.472Z,9.60
2022-08-17T19:40:10.040Z,4.32
2022-08-17T19:42:53.007Z,5.10
2022-08-17T19:45:33.266Z,3.60
2022-08-17T19:48:19.356Z,5.72
2022-08-17T19:50:55.893Z,5.68
2022-08-17T19:54:01.601Z,5.55
2022-08-17T19:56:45.091Z,3.92
2022-08-17T19:59:49.552Z,5.03
2022-08-17T20:02:19.130Z,5.03
2022-08-17T20:04:46.931Z,3.50
2022-08-17T20:07:26.513Z,4.82
2022-08-17T20:10:30.908Z,6.97
2022-08-17T20:13:02.908Z,6.75
2022-08-17T20:15:31.252Z,5.57
2022-08-17T20:18:01.502Z,5.07
2022-08-17T20:20:47.189Z,6.07
2022-08-17T20:23:30.315Z,7.57
2022-08-17T20:26:19.065Z,5.28
2022-08-17T20:29:04.391Z,8.90
2022-08-17T20:31:46.859Z,7.53
2022-08-17T20:34:25.725Z,8.52
2022-08-17T20:37:09.323Z,4.82
2022-08-17T20:39:39.900Z,5.50
2022-08-17T20:42:21.609Z,6.13
2022-08-17T20:45:02.862Z,6.40
2022-08-17T20:48:00.769Z,4.95
2022-08-17T20:50:36.669Z,5.97
2022-08-17T20:53:06.128Z,5.30
2022-08-17T20:55:35.594Z,7.10
2022-08-17T20:58:24.527Z,5.78
2022-08-17T21:00:57.141Z,7.50
2022-08-17T21:03:23.838Z,8.52
2022-08-17T21:06:15.314Z,5.20
2022-08-17T21:08:57.852Z,8.25
2022-08-17T21:12:02.797Z,9.00
2022-08-17T21:14:33.670Z,10.40
2022-08-17T21:17:29.528Z,8.25
2022-08-17T21:20:14.618Z,8.98
2022-08-17T21:22:54.864Z,8.55
2022-08-17T21:25:24.633Z,11.32
2022-08-17T21:28:12.790Z,12.15
2022-08-17T21:30:39.181Z,16.17
2022-08-17T21:33:16.423Z,11.35
2022-08-17T21:35:51.360Z,11.75
2022-08-17T21:38:20.738Z,12.10
2022-08-17T21:40:50.760Z,12.90
2022-08-17T21:43:27.310Z,13.32
2022-08-17T21:46:05.679Z,14.20
2022-08-17T21:48:44.056Z,14.68
2022-08-17T21:51:17.540Z,18.42
2022-08-17T21:53:50.507Z,15.43
2022-08-17T21:56:26.472Z,17.40
2022-08-17T21:58:58.553Z,16.52
2022-08-17T22:01:34.478Z,14.02
2022-08-17T22:04:08.659Z,14.23
2022-08-17T22:06:37.297Z,13.43
2022-08-17T22:09:14.039Z,14.35
2022-08-17T22:11:52.949Z,13.93
2022-08-17T22:14:52.776Z,14.38
2022-08-17T22:17:18.190Z,17.63
2022-08-17T22:19:49.172Z,13.55
2022-08-17T22:22:32.929Z,13.98
2022-08-17T22:25:04.084Z,14.55
2022-08-17T22:27:45.743Z,15.27
2022-08-17T22:30:45.553Z,16.77
2022-08-17T22:33:41.527Z,17.23
2022-08-17T22:36:25.128Z,16.00
2022-08-17T22:39:14.949Z,17.65
2022-08-17T22:41:48.085Z,19.17
2022-08-17T22:44:35.563Z,18.65
2022-08-17T22:47:07.464Z,16.65
2022-08-17T22:49:53.264Z,19.98
2022-08-17T22:52:34.863Z,19.03
2022-08-17T22:55:32.927Z,19.08
2022-08-17T22:58:19.440Z,17.77
2022-08-17T23:00:48.610Z,19.60
2022-08-17T23:03:24.322Z,17.65
2022-08-17T23:06:04.736Z,17.90
2022-08-17T23:08:32.481Z,17.15
2022-08-17T23:11:00.350Z,16.92
2022-08-17T23:13:33.328Z,17.45
2022-08-17T23:15:59.932Z,15.48
2022-08-17T23:18:27.255Z,15.15
2022-08-17T23:20:53.986Z,14.50
2022-08-17T23:23:23.668Z,14.43
2022-08-17T23:25:50.517Z,14.82
2022-08-17T23:28:17.240Z,15.25
2022-08-17T23:30:45.027Z,13.82
2022-08-17T23:33:21.699Z,15.73
2022-08-17T23:35:48.376Z,15.23
2022-08-17T23:38:14.867Z,15.88
2022-08-17T23:40:41.393Z,15.40
2022-08-17T23:43:24.824Z,14.95
2022-08-17T23:45:54.063Z,14.73
2022-08-17T23:48:36.159Z,16.50
2022-08-17T23:51:14.980Z,15.50
2022-08-17T23:53:46.321Z,18.48
2022-08-17T23:56:12.874Z,16.58
2022-08-17T23:58:42.062Z,16.95
